createdAt,value
2022-09-30T00:01:51.516Z,4.55
2022-09-30T00:04:22.116Z,4.15
2022-09-30T00:06:49.215Z,4.55
2022-09-30T00:09:16.326Z,4.75
2022-09-30T00:11:43.394Z,3.55
2022-09-30T00:14:17.994Z,4.20
2022-09-30T00:16:44.586Z,3.53
2022-09-30T00:19:11.234Z,3.70
2022-09-30T00:21:37.765Z,4.15
2022-09-30T00:24:04.630Z,4.60
2022-09-30T00:26:31.334Z,4.68
2022-09-30T00:28:58.861Z,3.63
2022-09-30T00:31:27.778Z,4.45
2022-09-30T00:34:10.280Z,4.50
2022-09-30T00:36:43.999Z,4.88
2022-09-30T00:39:12.208Z,4.45
2022-09-30T00:41:39.278Z,4.53
2022-09-30T00:44:24.562Z,3.88
2022-09-30T00:46:51.190Z,4.65
2022-09-30T00:49:20.779Z,4.55
2022-09-30T00:51:52.755Z,4.45
2022-09-30T00:54:21.953Z,5.32
2022-09-30T00:56:56.578Z,4.28
2022-09-30T00:59:25.483Z,5.38
2022-09-30T01:01:52.129Z,5.28
2022-09-30T01:04:20.891Z,5.45
2022-09-30T01:06:48.055Z,5.78
2022-09-30T01:09:15.075Z,5.25
2022-09-30T01:11:41.752Z,5.55
2022-09-30T01:14:11.958Z,5.65
2022-09-30T01:16:53.807Z,4.22
2022-09-30T01:19:23.481Z,5.13
2022-09-30T01:22:08.946Z,4.47
2022-09-30T01:24:53.791Z,4.68
2022-09-30T01:27:20.435Z,4.47
2022-09-30T01:29:46.909Z,5.05
2022-09-30T01:32:22.364Z,3.75
2022-09-30T01:35:15.569Z,5.80
2022-09-30T01:37:45.481Z,4.25
2022-09-30T01:40:22.713Z,4.97
2022-09-30T01:43:00.217Z,4.88
2022-09-30T01:45:34.237Z,4.55
2022-09-30T01:50:30.413Z,5.28
2022-09-30T01:53:03.894Z,3.90
2022-09-30T01:55:38.289Z,5.00
2022-09-30T01:58:11.613Z,4.55
2022-09-30T02:00:41.159Z,4.70
2022-09-30T02:03:10.665Z,4.75
2022-09-30T02:05:37.161Z,4.93
2022-09-30T02:08:11.588Z,5.05
2022-09-30T02:10:58.394Z,5.35
2022-09-30T02:13:43.669Z,3.28
2022-09-30T02:16:13.315Z,4.05
2022-09-30T02:18:43.613Z,4.72
2022-09-30T02:21:11.108Z,5.07
2022-09-30T02:23:41.006Z,4.78
2022-09-30T02:26:10.458Z,3.80
2022-09-30T02:28:39.570Z,4.70
2022-09-30T02:31:07.629Z,4.40
2022-09-30T02:34:13.970Z,4.85
2022-09-30T02:36:50.646Z,3.85
2022-09-30T02:39:27.329Z,4.38
2022-09-30T02:41:59.019Z,4.32
2022-09-30T02:44:25.667Z,5.00
2022-09-30T02:46:52.194Z,4.93
2022-09-30T02:49:27.471Z,4.10
2022-09-30T02:52:19.203Z,4.90
2022-09-30T02:54:48.576Z,3.47
2022-09-30T02:57:35.706Z,3.22
2022-09-30T03:00:03.767Z,4.60
2022-09-30T03:02:31.093Z,4.47
2022-09-30T03:04:57.625Z,4.53
2022-09-30T03:07:24.223Z,4.38
2022-09-30T03:09:55.771Z,5.47
2022-09-30T03:12:48.327Z,4.15
2022-09-30T03:15:20.929Z,4.63
2022-09-30T03:17:56.617Z,4.10
2022-09-30T03:20:25.882Z,4.47
2022-09-30T03:22:55.530Z,4.55
2022-09-30T03:25:32.296Z,3.78
2022-09-30T03:28:00.253Z,4.15
2022-09-30T03:30:29.805Z,4.10
2022-09-30T03:33:02.391Z,5.32
2022-09-30T03:35:38.070Z,4.18
2022-09-30T03:38:34.653Z,3.20
2022-09-30T03:41:08.510Z,4.05
2022-09-30T03:43:35.014Z,3.80
2022-09-30T03:46:18.921Z,4.15
2022-09-30T03:48:46.614Z,3.55
2022-09-30T03:51:13.692Z,3.03
2022-09-30T03:53:41.096Z,3.50
2022-09-30T03:56:07.818Z,4.00
2022-09-30T03:58:34.967Z,4.63
2022-09-30T04:01:01.637Z,3.88
2022-09-30T04:03:28.630Z,4.63
2022-09-30T04:05:55.128Z,3.63
2022-09-30T04:08:23.130Z,4.53
2022-09-30T04:10:49.601Z,4.68
2022-09-30T04:13:16.093Z,3.75
2022-09-30T04:15:42.674Z,4.97
2022-09-30T04:18:09.266Z,4.57
2022-09-30T04:20:35.874Z,4.30
2022-09-30T04:23:02.715Z,3.78
2022-09-30T04:25:29.442Z,4.75
2022-09-30T04:27:56.276Z,4.05
2022-09-30T04:30:26.322Z,5.13
2022-09-30T04:32:53.950Z,3.97
2022-09-30T04:35:20.539Z,4.65
2022-09-30T04:37:47.548Z,3.72
2022-09-30T04:40:14.859Z,4.18
2022-09-30T04:42:42.934Z,3.95
2022-09-30T04:45:13.052Z,4.25
2022-09-30T04:47:43.058Z,5.30
2022-09-30T04:50:09.655Z,4.43
2022-09-30T04:52:36.197Z,4.80
2022-09-30T04:55:02.694Z,4.43
2022-09-30T04:57:29.170Z,4.40
2022-09-30T04:59:55.687Z,4.07
2022-09-30T05:02:22.319Z,4.38
2022-09-30T05:04:48.845Z,4.75
2022-09-30T05:07:15.327Z,4.50
2022-09-30T05:09:41.963Z,4.47
2022-09-30T05:12:08.534Z,5.57
2022-09-30T05:14:35.082Z,4.03
2022-09-30T05:17:02.264Z,5.95
2022-09-30T05:19:29.356Z,4.38
2022-09-30T05:21:55.968Z,3.60
2022-09-30T05:24:22.529Z,4.90
2022-09-30T05:26:48.996Z,4.60
2022-09-30T05:29:15.469Z,4.43
2022-09-30T05:31:42.731Z,4.38
2022-09-30T05:34:09.456Z,4.65
2022-09-30T05:36:36.231Z,4.38
2022-09-30T05:39:02.881Z,4.18
2022-09-30T05:41:29.354Z,4.40
2022-09-30T05:43:55.878Z,6.18
2022-09-30T05:46:22.398Z,4.13
2022-09-30T05:48:48.975Z,4.72
2022-09-30T05:51:15.525Z,4.80
2022-09-30T05:53:42.293Z,4.60
2022-09-30T05:56:09.613Z,4.05
2022-09-30T05:58:36.957Z,5.90
2022-09-30T06:01:12.131Z,4.30
2022-09-30T06:03:40.113Z,4.45
2022-09-30T06:06:07.326Z,4.57
2022-09-30T06:08:33.977Z,4.68
2022-09-30T06:11:00.488Z,5.07
2022-09-30T06:13:27.755Z,4.68
2022-09-30T06:16:01.314Z,5.05
2022-09-30T06:18:28.414Z,5.25
2022-09-30T06:21:04.999Z,5.40
2022-09-30T06:23:32.030Z,4.25
2022-09-30T06:25:58.669Z,4.53
2022-09-30T06:28:25.220Z,4.68
2022-09-30T06:30:51.711Z,4.72
2022-09-30T06:33:18.226Z,4.07
2022-09-30T06:35:47.377Z,5.80
2022-09-30T06:38:17.282Z,4.88
2022-09-30T06:40:44.592Z,4.50
2022-09-30T06:43:11.688Z,4.40
2022-09-30T06:45:38.588Z,4.05
2022-09-30T06:48:06.040Z,3.97
2022-09-30T06:50:33.082Z,4.05
2022-09-30T06:53:00.411Z,5.50
2022-09-30T06:55:27.542Z,3.80
2022-09-30T06:57:55.534Z,4.38
2022-09-30T07:00:22.789Z,4.10
2022-09-30T07:02:49.513Z,4.03
2022-09-30T07:05:16.726Z,5.03
2022-09-30T07:07:43.956Z,5.45
2022-09-30T07:10:10.869Z,5.55
2022-09-30T07:12:37.486Z,4.20
2022-09-30T07:15:04.080Z,4.65
2022-09-30T07:17:30.598Z,4.38
2022-09-30T07:19:57.863Z,5.32
2022-09-30T07:22:27.447Z,4.68
2022-09-30T07:24:54.429Z,4.18
2022-09-30T07:27:21.610Z,4.30
2022-09-30T07:30:08.250Z,4.57
2022-09-30T07:32:34.731Z,4.05
2022-09-30T07:35:01.282Z,4.78
2022-09-30T07:37:27.905Z,4.82
2022-09-30T07:39:54.495Z,4.32
2022-09-30T07:42:22.971Z,4.10
2022-09-30T07:44:51.920Z,4.53
2022-09-30T07:47:18.898Z,4.85
2022-09-30T07:49:45.434Z,4.68
2022-09-30T07:52:12.654Z,4.53
2022-09-30T07:54:43.319Z,5.28
2022-09-30T07:57:12.196Z,5.03
2022-09-30T07:59:40.655Z,4.82
2022-09-30T08:02:08.169Z,5.00
2022-09-30T08:04:37.222Z,4.90
2022-09-30T08:07:05.907Z,4.95
2022-09-30T08:09:32.518Z,3.78
2022-09-30T08:11:59.170Z,4.35
2022-09-30T08:14:27.141Z,4.72
2022-09-30T08:16:54.323Z,4.82
2022-09-30T08:19:22.857Z,4.72
2022-09-30T08:21:49.588Z,5.35
2022-09-30T08:24:16.587Z,4.72
2022-09-30T08:26:43.317Z,5.97
2022-09-30T08:29:16.954Z,3.70
2022-09-30T08:31:47.608Z,4.60
2022-09-30T08:34:14.243Z,4.75
2022-09-30T08:36:40.802Z,6.32
2022-09-30T08:39:07.390Z,4.88
2022-09-30T08:42:32.371Z,5.78
2022-09-30T08:45:01.878Z,5.80
2022-09-30T08:47:32.609Z,6.15
2022-09-30T08:50:05.211Z,5.32
2022-09-30T08:52:48.430Z,5.90
2022-09-30T08:55:21.025Z,6.28
2022-09-30T08:57:47.972Z,6.53
2022-09-30T09:00:16.305Z,6.70
2022-09-30T09:02:49.430Z,6.45
2022-09-30T09:05:20.589Z,5.85
2022-09-30T09:08:00.593Z,7.53
2022-09-30T09:10:46.834Z,5.57
2022-09-30T09:13:13.321Z,5.68
2022-09-30T09:15:50.439Z,6.35
2022-09-30T09:18:23.574Z,7.00
2022-09-30T09:20:53.922Z,7.30
2022-09-30T09:23:20.671Z,8.20
2022-09-30T09:25:49.662Z,6.18
2022-09-30T09:28:37.085Z,6.70
2022-09-30T09:31:04.605Z,6.07
2022-09-30T09:33:32.320Z,7.35
2022-09-30T09:36:04.995Z,6.65
2022-09-30T09:39:06.970Z,7.20
2022-09-30T09:41:37.343Z,7.97
2022-09-30T09:44:22.703Z,6.97
2022-09-30T09:46:51.090Z,7.18
2022-09-30T09:49:23.146Z,7.15
2022-09-30T09:52:12.634Z,7.75
2022-09-30T09:54:43.407Z,7.93
2022-09-30T09:57:10.852Z,7.20
2022-09-30T09:59:38.322Z,8.15
2022-09-30T10:02:22.728Z,6.85
2022-09-30T10:05:03.982Z,7.15
2022-09-30T10:07:32.140Z,7.25
2022-09-30T10:10:07.786Z,6.28
2022-09-30T10:12:34.513Z,7.78
2022-09-30T10:15:02.430Z,6.60
2022-09-30T10:17:31.190Z,6.60
2022-09-30T10:19:59.790Z,6.20
2022-09-30T10:22:30.649Z,6.60
2022-09-30T10:25:15.565Z,7.95
2022-09-30T10:27:49.590Z,6.70
2022-09-30T10:30:35.099Z,7.50
2022-09-30T10:33:04.363Z,7.93
2022-09-30T10:35:30.895Z,7.68
2022-09-30T10:37:58.484Z,7.65
2022-09-30T10:40:27.755Z,7.53
2022-09-30T10:42:54.692Z,6.88
2022-09-30T10:45:41.589Z,7.15
2022-09-30T10:48:15.667Z,6.60
2022-09-30T10:50:49.506Z,8.10
2022-09-30T10:53:18.879Z,8.32
2022-09-30T10:55:45.832Z,8.27
2022-09-30T10:58:23.602Z,9.45
2022-09-30T11:00:52.095Z,8.20
2022-09-30T11:03:21.098Z,9.00
2022-09-30T11:05:49.741Z,6.72
2022-09-30T11:08:25.705Z,8.10
2022-09-30T11:10:58.380Z,8.30
2022-09-30T11:13:30.828Z,8.38
2022-09-30T11:16:09.471Z,7.80
2022-09-30T11:18:49.244Z,8.85
2022-09-30T11:21:21.453Z,7.70
2022-09-30T11:23:47.936Z,7.93
2022-09-30T11:26:14.395Z,7.40
2022-09-30T11:28:43.959Z,7.90
2022-09-30T11:31:19.950Z,8.60
2022-09-30T11:33:46.469Z,9.70
2022-09-30T11:36:31.769Z,7.97
2022-09-30T11:39:08.334Z,9.30
2022-09-30T11:41:39.608Z,7.88
2022-09-30T11:44:15.352Z,8.18
2022-09-30T11:46:41.922Z,7.95
2022-09-30T11:49:14.666Z,8.32
2022-09-30T11:51:51.004Z,8.50
2022-09-30T11:54:52.799Z,8.60
2022-09-30T11:57:23.291Z,8.77
2022-09-30T11:59:59.518Z,8.45
2022-09-30T12:02:26.876Z,9.90
2022-09-30T12:04:57.791Z,9.48
2022-09-30T12:07:40.451Z,9.30
2022-09-30T12:10:14.507Z,8.73
2022-09-30T12:12:41.440Z,7.95
2022-09-30T12:15:10.420Z,8.25
2022-09-30T12:17:39.078Z,8.80
2022-09-30T12:20:26.249Z,9.35
2022-09-30T12:22:54.250Z,8.70
2022-09-30T12:25:33.368Z,9.15
2022-09-30T12:28:24.056Z,7.47
2022-09-30T12:30:54.121Z,8.27
2022-09-30T12:33:39.871Z,7.35
2022-09-30T12:36:15.553Z,7.10
2022-09-30T12:38:48.329Z,9.27
2022-09-30T12:41:27.010Z,10.23
2022-09-30T12:44:24.147Z,9.35
2022-09-30T12:46:58.678Z,8.77
2022-09-30T12:49:26.746Z,9.13
2022-09-30T12:51:58.109Z,8.10
2022-09-30T12:54:30.556Z,8.82
2022-09-30T12:57:00.626Z,9.40
2022-09-30T12:59:29.942Z,9.05
2022-09-30T13:01:58.001Z,8.55
2022-09-30T13:04:33.405Z,8.77
2022-09-30T13:06:59.842Z,9.25
2022-09-30T13:09:36.787Z,9.50
2022-09-30T13:12:03.283Z,9.45
2022-09-30T13:14:33.665Z,8.73
2022-09-30T13:17:09.175Z,9.15
2022-09-30T13:19:36.536Z,8.25
2022-09-30T13:22:18.687Z,8.32
2022-09-30T13:25:06.795Z,8.68
2022-09-30T13:27:39.579Z,9.25
2022-09-30T13:30:18.405Z,8.38
2022-09-30T13:32:47.837Z,8.45
2022-09-30T13:35:33.251Z,8.32
2022-09-30T13:38:11.913Z,7.78
2022-09-30T13:41:01.197Z,8.93
2022-09-30T13:43:31.673Z,8.60
2022-09-30T13:45:59.089Z,8.20
2022-09-30T13:48:29.455Z,7.72
2022-09-30T13:50:57.919Z,7.95
2022-09-30T13:53:40.289Z,8.35
2022-09-30T13:56:08.555Z,7.72
2022-09-30T13:58:35.143Z,8.77
2022-09-30T14:01:21.477Z,6.43
2022-09-30T14:03:57.175Z,7.70
2022-09-30T14:06:33.166Z,7.47
2022-09-30T14:09:14.934Z,7.07
2022-09-30T14:11:47.493Z,7.72
2022-09-30T14:14:37.195Z,6.50
2022-09-30T14:17:04.534Z,6.57
2022-09-30T14:19:34.079Z,5.68
2022-09-30T14:22:05.859Z,5.78
2022-09-30T14:24:37.789Z,5.95
2022-09-30T14:27:04.617Z,6.13
2022-09-30T14:29:50.187Z,6.40
2022-09-30T14:32:21.303Z,5.40
2022-09-30T14:34:48.423Z,5.68
2022-09-30T14:37:44.530Z,6.63
2022-09-30T14:40:12.396Z,4.45
2022-09-30T14:42:40.716Z,4.82
2022-09-30T14:45:08.181Z,3.78
2022-09-30T14:47:40.677Z,3.17
2022-09-30T14:50:15.119Z,3.47
2022-09-30T14:52:45.858Z,2.88
2022-09-30T14:55:25.393Z,3.25
2022-09-30T14:57:53.199Z,3.08
2022-09-30T15:00:20.842Z,5.15
2022-09-30T15:02:47.672Z,3.78
2022-09-30T15:05:15.644Z,2.95
2022-09-30T15:07:42.259Z,2.90
2022-09-30T15:10:19.953Z,2.50
2022-09-30T15:12:47.114Z,2.67
2022-09-30T15:15:23.067Z,3.22
2022-09-30T15:17:52.011Z,2.17
2022-09-30T15:20:32.859Z,3.00
2022-09-30T15:23:03.301Z,2.75
2022-09-30T15:25:30.638Z,3.03
2022-09-30T15:27:57.383Z,2.67
2022-09-30T15:30:26.711Z,3.00
2022-09-30T15:33:00.700Z,2.13
2022-09-30T15:37:53.708Z,2.42
2022-09-30T15:40:40.034Z,1.08
2022-09-30T15:43:08.029Z,1.60
2022-09-30T15:45:35.786Z,1.65
2022-09-30T15:48:06.913Z,1.95
2022-09-30T15:50:49.029Z,1.63
2022-09-30T15:53:15.574Z,0.70
2022-09-30T15:55:43.797Z,0.60
2022-09-30T15:58:33.440Z,0.90
2022-09-30T16:01:21.587Z,0.80
2022-09-30T16:04:02.629Z,0.82
2022-09-30T16:06:38.011Z,0.70
2022-09-30T16:09:06.818Z,0.73
2022-09-30T16:11:36.785Z,1.35
2022-09-30T16:14:08.704Z,5.47
2022-09-30T16:16:36.554Z,1.98
2022-09-30T16:19:04.312Z,1.33
2022-09-30T16:21:45.017Z,1.20
2022-09-30T16:24:34.535Z,0.77
2022-09-30T16:27:21.312Z,0.82
2022-09-30T16:29:47.794Z,0.80
2022-09-30T16:32:14.430Z,0.70
2022-09-30T16:34:41.051Z,0.85
2022-09-30T16:37:11.765Z,0.63
2022-09-30T16:39:38.438Z,1.13
2022-09-30T16:42:05.093Z,1.08
2022-09-30T16:44:35.549Z,1.15
2022-09-30T16:47:02.405Z,0.82
2022-09-30T16:49:28.939Z,0.73
2022-09-30T16:51:55.454Z,1.20
2022-09-30T16:54:21.931Z,0.93
2022-09-30T16:56:49.453Z,0.57
2022-09-30T16:59:17.165Z,1.80
2022-09-30T17:01:44.182Z,1.35
2022-09-30T17:04:14.127Z,1.13
2022-09-30T17:06:43.079Z,1.55
2022-09-30T17:09:09.610Z,2.13
2022-09-30T17:11:36.501Z,2.13
2022-09-30T17:14:04.327Z,1.88
2022-09-30T17:16:31.295Z,1.20
2022-09-30T17:18:57.958Z,1.30
2022-09-30T17:21:25.718Z,1.17
2022-09-30T17:23:52.860Z,0.85
2022-09-30T17:26:19.414Z,0.77
2022-09-30T17:28:46.337Z,1.40
2022-09-30T17:31:12.963Z,1.38
2022-09-30T17:33:40.332Z,1.10
2022-09-30T17:36:08.692Z,0.80
2022-09-30T17:38:35.185Z,1.23
2022-09-30T17:41:20.370Z,1.20
2022-09-30T17:43:46.920Z,1.00
2022-09-30T17:46:16.249Z,1.40
2022-09-30T17:48:44.200Z,1.38
2022-09-30T17:51:11.173Z,1.90
2022-09-30T17:53:38.645Z,2.38
2022-09-30T17:56:10.363Z,2.35
2022-09-30T17:58:36.935Z,2.78
2022-09-30T18:01:07.906Z,3.22
2022-09-30T18:03:34.719Z,3.97
2022-09-30T18:06:01.333Z,4.55
2022-09-30T18:08:28.518Z,4.97
2022-09-30T18:10:57.435Z,3.28
2022-09-30T18:13:24.563Z,3.35
2022-09-30T18:15:51.133Z,1.40
2022-09-30T18:18:17.666Z,1.55
2022-09-30T18:20:47.838Z,0.98
2022-09-30T18:23:15.093Z,2.25
2022-09-30T18:25:44.082Z,1.15
2022-09-30T18:28:11.364Z,1.10
2022-09-30T18:30:39.465Z,1.58
2022-09-30T18:33:07.305Z,1.27
2022-09-30T18:35:37.874Z,5.47
2022-09-30T18:38:04.875Z,9.45
2022-09-30T18:40:31.980Z,3.88
2022-09-30T18:42:59.949Z,2.85
2022-09-30T18:45:26.919Z,3.35
2022-09-30T18:47:57.391Z,2.65
2022-09-30T18:50:24.896Z,3.13
2022-09-30T18:52:52.573Z,2.45
2022-09-30T18:55:22.502Z,2.67
2022-09-30T18:57:51.568Z,2.72
2022-09-30T19:00:18.219Z,2.13
2022-09-30T19:02:45.039Z,2.38
2022-09-30T19:05:12.404Z,2.67
2022-09-30T19:07:39.316Z,2.97
2022-09-30T19:10:09.986Z,1.88
2022-09-30T19:12:37.261Z,1.73
2022-09-30T19:15:05.271Z,2.08
2022-09-30T19:17:33.337Z,1.60
2022-09-30T19:20:00.768Z,2.20
2022-09-30T19:22:28.162Z,3.08
2022-09-30T19:24:54.969Z,4.70
2022-09-30T19:27:26.410Z,4.20
2022-09-30T19:29:57.254Z,4.68
2022-09-30T19:32:26.566Z,3.95
2022-09-30T19:35:04.690Z,5.32
2022-09-30T19:37:38.832Z,5.03
2022-09-30T19:46:29.096Z,3.63
2022-09-30T19:52:28.495Z,3.67
2022-09-30T19:55:02.671Z,3.92
2022-09-30T19:57:34.981Z,3.72
2022-09-30T20:00:05.179Z,4.18
2022-09-30T20:02:32.332Z,4.32
2022-09-30T20:05:00.726Z,3.83
2022-09-30T20:07:28.183Z,3.55
2022-09-30T20:09:54.806Z,3.03
2022-09-30T20:12:21.359Z,2.95
2022-09-30T20:15:06.491Z,3.30
2022-09-30T20:17:33.082Z,3.95
2022-09-30T20:20:17.885Z,3.10
2022-09-30T20:22:44.404Z,4.07
2022-09-30T20:25:11.128Z,3.80
2022-09-30T20:27:49.825Z,3.17
2022-09-30T20:30:18.592Z,3.13
2022-09-30T20:32:45.138Z,3.58
2022-09-30T20:35:11.672Z,3.90
2022-09-30T20:37:40.954Z,4.68
2022-09-30T20:40:09.444Z,6.00
2022-09-30T20:42:38.620Z,5.07
2022-09-30T20:45:06.267Z,3.42
2022-09-30T20:47:32.739Z,2.53
2022-09-30T20:49:59.266Z,2.22
2022-09-30T20:52:25.772Z,1.80
2022-09-30T20:54:53.157Z,2.50
2022-09-30T20:57:19.678Z,2.67
2022-09-30T20:59:47.316Z,2.20
2022-09-30T21:02:17.137Z,2.25
2022-09-30T21:04:43.638Z,1.92
2022-09-30T21:07:10.197Z,2.45
2022-09-30T21:09:36.669Z,2.47
2022-09-30T21:12:03.344Z,1.90
2022-09-30T21:14:29.829Z,2.28
2022-09-30T21:16:56.361Z,2.60
2022-09-30T21:19:22.954Z,1.85
2022-09-30T21:21:49.486Z,1.95
2022-09-30T21:24:16.471Z,2.35
2022-09-30T21:26:43.292Z,1.92
2022-09-30T21:29:09.820Z,1.35
2022-09-30T21:31:37.939Z,1.77
2022-09-30T21:34:04.754Z,1.60
2022-09-30T21:36:32.231Z,2.03
2022-09-30T21:39:04.729Z,1.65
2022-09-30T21:41:32.760Z,1.50
2022-09-30T21:44:00.026Z,1.73
2022-09-30T21:46:29.669Z,1.38
2022-09-30T21:49:16.972Z,1.65
2022-09-30T21:51:43.583Z,1.73
2022-09-30T21:54:12.022Z,2.97
2022-09-30T21:56:38.672Z,1.38
2022-09-30T21:59:05.415Z,1.67
2022-09-30T22:01:32.640Z,2.83
2022-09-30T22:03:59.382Z,1.40
2022-09-30T22:06:26.107Z,1.42
2022-09-30T22:08:52.655Z,1.25
2022-09-30T22:11:22.609Z,1.45
2022-09-30T22:13:50.483Z,1.70
2022-09-30T22:16:17.040Z,1.33
2022-09-30T22:18:43.568Z,1.52
2022-09-30T22:21:11.720Z,2.05
2022-09-30T22:23:38.552Z,2.10
2022-09-30T22:26:12.644Z,1.88
2022-09-30T22:28:39.512Z,1.83
2022-09-30T22:31:09.824Z,1.77
2022-09-30T22:33:54.854Z,1.73
2022-09-30T22:36:40.112Z,2.08
2022-09-30T22:39:06.588Z,1.73
2022-09-30T22:41:33.974Z,1.55
2022-09-30T22:44:00.996Z,1.75
2022-09-30T22:46:29.446Z,1.20
2022-09-30T22:48:59.492Z,1.65
2022-09-30T22:51:26.622Z,1.88
2022-09-30T22:53:53.491Z,2.33
2022-09-30T22:56:20.252Z,2.75
2022-09-30T22:58:47.275Z,1.40
2022-09-30T23:01:14.072Z,1.67
2022-09-30T23:03:42.573Z,2.03
2022-09-30T23:06:09.258Z,2.40
2022-09-30T23:08:41.770Z,2.83
2022-09-30T23:11:12.199Z,2.47
2022-09-30T23:13:40.142Z,2.10
2022-09-30T23:16:07.175Z,2.13
2022-09-30T23:18:34.555Z,2.10
2022-09-30T23:21:02.587Z,1.80
2022-09-30T23:23:30.016Z,2.10
2022-09-30T23:25:59.631Z,1.35
2022-09-30T23:28:26.264Z,2.53
2022-09-30T23:30:52.850Z,2.17
2022-09-30T23:33:19.553Z,1.90
2022-09-30T23:35:46.971Z,2.17
2022-09-30T23:38:13.631Z,2.00
2022-09-30T23:40:44.876Z,1.38
2022-09-30T23:43:11.642Z,1.70
2022-09-30T23:45:38.317Z,1.83
2022-09-30T23:48:04.907Z,1.60
2022-09-30T23:50:32.569Z,2.00
2022-09-30T23:52:59.529Z,1.40
2022-09-30T23:55:27.722Z,2.30
2022-09-30T23:57:54.555Z,1.70
